createdAt,value
2018-08-12T00:02:56.968Z,96097.97
2018-08-12T00:06:01.514Z,96133.36
2018-08-12T00:09:09.180Z,96086.28
2018-08-12T00:12:13.609Z,96177.67
2018-08-12T00:15:21.043Z,96099.07
2018-08-12T00:18:25.288Z,96108.41
2018-08-12T00:21:29.603Z,96121.67
2018-08-12T00:24:34.205Z,96074.45
2018-08-12T00:27:38.625Z,96099.24
2018-08-12T00:30:42.938Z,96116.86
2018-08-12T00:33:47.416Z,96107.39
2018-08-12T00:36:51.739Z,96075.77
2018-08-12T00:39:56.001Z,96127.69
2018-08-12T00:43:00.286Z,96064.80
2018-08-12T00:46:04.611Z,96062.21
2018-08-12T00:49:08.920Z,96178.33
2018-08-12T00:52:13.242Z,96060.44
2018-08-12T00:55:18.825Z,96050.56
2018-08-12T00:58:23.178Z,96060.34
2018-08-12T01:01:27.794Z,96150.81
2018-08-12T01:04:32.314Z,96098.36
2018-08-12T01:07:36.904Z,96044.58
2018-08-12T01:10:41.488Z,96027.67
2018-08-12T01:13:46.074Z,96082.37
2018-08-12T01:16:50.393Z,96027.05
2018-08-12T01:19:54.687Z,96033.64
2018-08-12T01:22:59.330Z,96016.40
2018-08-12T01:26:05.705Z,96087.06
2018-08-12T01:29:10.075Z,96092.70
2018-08-12T01:32:14.429Z,96044.05
2018-08-12T01:35:19.183Z,96018.58
2018-08-12T01:38:23.525Z,96005.36
2018-08-12T01:41:27.845Z,96050.65
2018-08-12T01:44:32.316Z,96218.55
2018-08-12T01:47:36.627Z,96056.89
2018-08-12T01:50:41.098Z,96019.12
2018-08-12T01:53:45.543Z,96009.25
2018-08-12T01:56:50.049Z,95999.39
2018-08-12T01:59:54.475Z,96023.36
2018-08-12T02:02:58.785Z,95997.51
2018-08-12T02:06:03.088Z,95998.84
2018-08-12T02:09:09.327Z,96044.99
2018-08-12T02:12:13.621Z,95977.52
2018-08-12T02:15:17.921Z,96125.74
2018-08-12T02:18:22.265Z,96052.66
2018-08-12T02:21:26.538Z,95982.63
2018-08-12T02:24:30.823Z,95961.25
2018-08-12T02:27:35.094Z,95941.55
2018-08-12T02:30:39.377Z,95936.66
2018-08-12T02:33:43.663Z,95935.25
2018-08-12T02:36:47.928Z,95949.31
2018-08-12T02:39:52.218Z,95930.17
2018-08-12T02:42:56.516Z,96097.36
2018-08-12T02:46:00.802Z,96177.84
2018-08-12T02:49:05.319Z,96197.84
2018-08-12T02:52:09.625Z,96206.91
2018-08-12T02:55:13.932Z,96184.85
2018-08-12T02:58:18.249Z,96208.42
2018-08-12T03:01:22.556Z,96227.91
2018-08-12T03:04:27.159Z,96252.91
2018-08-12T03:07:31.518Z,96275.55
2018-08-12T03:10:35.994Z,96276.09
2018-08-12T03:13:40.351Z,96246.55
2018-08-12T03:16:44.905Z,96297.73
2018-08-12T03:19:49.209Z,96268.91
2018-08-12T03:22:53.513Z,96348.94
2018-08-12T03:25:57.852Z,96321.33
2018-08-12T03:29:02.210Z,96305.67
2018-08-12T03:32:06.481Z,96351.75
2018-08-12T03:35:11.085Z,96355.70
2018-08-12T03:38:15.482Z,96362.55
2018-08-12T03:41:19.957Z,96340.66
2018-08-12T03:44:24.534Z,96374.11
2018-08-12T03:47:29.029Z,96384.70
2018-08-12T03:50:33.325Z,96358.16
2018-08-12T03:53:38.047Z,96410.86
2018-08-12T03:56:42.425Z,96413.27
2018-08-12T03:59:46.716Z,96404.62
2018-08-12T04:02:51.006Z,96321.99
2018-08-12T04:05:55.305Z,96456.85
2018-08-12T04:08:59.995Z,96459.70
2018-08-12T04:12:04.545Z,96476.98
2018-08-12T04:15:10.849Z,96388.49
2018-08-12T04:18:15.157Z,96491.95
2018-08-12T04:21:20.003Z,96498.50
2018-08-12T04:24:24.459Z,96512.87
2018-08-12T04:27:28.748Z,96469.00
2018-08-12T04:30:33.427Z,96518.48
2018-08-12T04:33:37.873Z,96526.03
2018-08-12T04:36:42.389Z,96541.63
2018-08-12T04:39:48.181Z,96474.00
2018-08-12T04:42:52.504Z,96562.05
2018-08-12T04:45:57.444Z,96486.11
2018-08-12T04:49:02.057Z,96608.36
2018-08-12T04:52:06.768Z,96498.22
2018-08-12T04:55:11.333Z,96522.69
2018-08-12T04:58:16.357Z,96329.47
2018-08-12T05:01:20.814Z,96309.67
2018-08-12T05:04:25.551Z,96337.23
2018-08-12T05:07:29.863Z,96516.91
2018-08-12T05:10:34.460Z,96500.66
2018-08-12T05:13:38.948Z,96283.87
2018-08-12T05:16:43.305Z,96267.09
2018-08-12T05:19:47.609Z,96270.20
2018-08-12T05:22:51.931Z,96267.77
2018-08-12T05:25:56.242Z,96265.35
2018-08-12T05:29:00.585Z,96252.70
2018-08-12T05:32:05.880Z,96319.56
2018-08-12T05:35:13.026Z,96340.83
2018-08-12T05:38:17.333Z,96234.80
2018-08-12T05:41:21.638Z,96224.06
2018-08-12T05:44:25.929Z,96248.59
2018-08-12T05:47:34.023Z,96238.31
2018-08-12T05:50:38.970Z,96247.19
2018-08-12T05:53:43.946Z,96281.64
2018-08-12T05:56:56.208Z,96294.57
2018-08-12T06:00:01.450Z,96283.58
2018-08-12T06:03:09.405Z,96302.52
2018-08-12T06:06:13.835Z,96322.27
2018-08-12T06:09:20.327Z,96361.38
2018-08-12T06:12:24.799Z,96375.32
2018-08-12T06:15:30.298Z,96406.69
2018-08-12T06:18:38.764Z,96408.72
2018-08-12T06:21:43.305Z,96391.02
2018-08-12T06:24:48.078Z,96392.41
2018-08-12T06:27:52.520Z,96351.11
2018-08-12T06:30:56.953Z,96345.94
2018-08-12T06:34:01.233Z,96364.69
2018-08-12T06:37:06.049Z,96340.25
2018-08-12T06:40:13.026Z,96304.37
2018-08-12T06:43:17.489Z,96261.94
2018-08-12T06:46:22.469Z,96245.88
2018-08-12T06:49:26.777Z,96290.00
2018-08-12T06:52:31.217Z,96228.61
2018-08-12T06:55:36.059Z,96286.92
2018-08-12T06:58:40.523Z,96300.53
2018-08-12T07:01:45.202Z,96297.37
2018-08-12T07:04:50.053Z,96226.31
2018-08-12T07:07:54.409Z,96217.99
2018-08-12T07:10:59.754Z,96205.71
2018-08-12T07:14:06.598Z,96256.75
2018-08-12T07:17:11.209Z,96240.91
2018-08-12T07:20:16.060Z,96259.79
2018-08-12T07:23:20.796Z,96232.48
2018-08-12T07:26:25.317Z,96213.87
2018-08-12T07:29:30.247Z,96189.92
2018-08-12T07:35:51.598Z,96177.60
2018-08-12T07:38:57.057Z,96191.91
2018-08-12T07:42:01.358Z,96175.42
2018-08-12T07:45:08.254Z,96180.42
2018-08-12T07:48:12.624Z,96124.86
2018-08-12T07:51:17.006Z,96132.09
2018-08-12T07:54:21.384Z,96112.34
2018-08-12T07:57:25.719Z,96114.05
2018-08-12T08:00:30.020Z,96119.77
2018-08-12T08:03:34.349Z,96109.17
2018-08-12T08:06:38.911Z,96099.41
2018-08-12T08:09:43.217Z,96124.96
2018-08-12T08:12:47.650Z,96075.88
2018-08-12T08:15:53.045Z,96101.55
2018-08-12T08:18:57.622Z,96104.75
2018-08-12T08:22:02.210Z,96083.14
2018-08-12T08:25:08.225Z,96073.80
2018-08-12T08:28:12.590Z,96055.23
2018-08-12T08:31:17.230Z,96073.30
2018-08-12T08:34:22.135Z,96098.37
2018-08-12T08:37:26.608Z,96089.66
2018-08-12T08:40:32.531Z,96073.55
2018-08-12T08:43:38.118Z,96086.50
2018-08-12T08:46:42.660Z,96090.59
2018-08-12T08:49:47.212Z,96086.36
2018-08-12T08:52:52.165Z,96071.80
2018-08-12T08:55:56.748Z,96084.82
2018-08-12T08:59:01.005Z,96092.61
2018-08-12T09:02:05.510Z,96068.93
2018-08-12T09:05:11.988Z,96093.10
2018-08-12T09:08:16.419Z,96088.14
2018-08-12T09:11:20.676Z,96075.14
2018-08-12T09:14:25.300Z,96058.84
2018-08-12T09:17:30.051Z,96042.36
2018-08-12T09:20:34.807Z,96058.87
2018-08-12T09:23:39.295Z,96042.38
2018-08-12T09:26:43.717Z,96053.63
2018-08-12T09:29:49.214Z,96040.83
2018-08-12T09:32:53.553Z,96052.10
2018-08-12T09:35:58.000Z,96012.92
2018-08-12T09:39:02.509Z,96026.50
2018-08-12T09:42:07.447Z,96032.11
2018-08-12T09:45:14.283Z,96027.47
2018-08-12T09:48:18.697Z,96021.28
2018-08-12T09:51:23.361Z,96005.55
2018-08-12T09:54:27.943Z,96020.25
2018-08-12T09:57:33.898Z,96018.60
2018-08-12T10:00:40.606Z,95997.48
2018-08-12T10:03:44.953Z,95972.03
2018-08-12T10:06:49.791Z,95939.52
2018-08-12T10:09:54.204Z,95970.31
2018-08-12T10:12:58.586Z,95970.69
2018-08-12T10:16:03.509Z,95944.75
2018-08-12T10:19:08.175Z,95970.09
2018-08-12T10:22:12.793Z,95949.01
2018-08-12T10:25:17.155Z,95944.54
2018-08-12T10:28:21.728Z,95928.64
2018-08-12T10:31:27.116Z,95929.61
2018-08-12T10:34:31.794Z,95934.42
2018-08-12T10:37:36.240Z,95941.72
2018-08-12T10:40:40.768Z,95907.30
2018-08-12T10:43:45.493Z,95931.23
2018-08-12T10:46:50.113Z,95912.13
2018-08-12T10:49:55.102Z,95908.04
2018-08-12T10:52:59.603Z,95897.02
2018-08-12T10:56:04.345Z,95900.74
2018-08-12T10:59:08.703Z,95891.69
2018-08-12T11:02:14.561Z,95880.64
2018-08-12T11:05:19.203Z,95869.42
2018-08-12T11:08:23.750Z,95888.75
2018-08-12T11:11:28.373Z,95879.91
2018-08-12T11:14:33.863Z,95866.70
2018-08-12T11:17:38.625Z,95872.30
2018-08-12T11:20:43.113Z,95867.22
2018-08-12T11:23:48.057Z,95855.63
2018-08-12T11:26:52.587Z,95855.36
2018-08-12T11:29:57.008Z,95854.84
2018-08-12T11:33:01.587Z,95856.38
2018-08-12T11:36:06.291Z,95860.23
2018-08-12T11:39:12.257Z,95853.91
2018-08-12T11:42:16.781Z,95853.76
2018-08-12T11:45:21.353Z,95825.86
2018-08-12T11:48:25.926Z,95825.30
2018-08-12T11:51:31.084Z,95809.48
2018-08-12T11:54:35.539Z,95799.84
2018-08-12T11:57:40.415Z,95785.34
2018-08-12T12:00:44.897Z,95796.86
2018-08-12T12:03:49.796Z,95805.09
2018-08-12T12:06:54.572Z,95796.23
2018-08-12T12:09:59.067Z,95800.03
2018-08-12T12:13:04.475Z,95790.31
2018-08-12T12:16:08.901Z,95778.27
2018-08-12T12:19:13.521Z,95775.84
2018-08-12T12:22:17.888Z,95769.44
2018-08-12T12:25:22.502Z,95751.09
2018-08-12T12:28:26.945Z,95739.92
2018-08-12T12:31:31.850Z,95735.15
2018-08-12T12:34:36.155Z,95734.30
2018-08-12T12:37:41.561Z,95735.36
2018-08-12T12:40:45.989Z,95729.33
2018-08-12T12:43:50.848Z,95716.87
2018-08-12T12:46:56.246Z,95704.77
2018-08-12T12:50:01.189Z,95700.54
2018-08-12T12:53:05.670Z,95702.92
2018-08-12T12:56:10.082Z,95694.45
2018-08-12T12:59:14.685Z,95690.84
2018-08-12T13:02:19.584Z,95702.39
2018-08-12T13:05:24.443Z,95698.39
2018-08-12T13:08:28.870Z,95682.09
2018-08-12T13:11:33.402Z,95691.78
2018-08-12T13:14:37.822Z,95687.36
2018-08-12T13:17:42.382Z,95674.27
2018-08-12T13:20:47.910Z,95660.58
2018-08-12T13:23:52.336Z,95660.28
2018-08-12T13:26:56.861Z,95648.73
2018-08-12T13:30:01.294Z,95640.27
2018-08-12T13:33:05.848Z,95635.12
2018-08-12T13:36:10.343Z,95628.42
2018-08-12T13:39:16.057Z,95616.95
2018-08-12T13:42:20.435Z,95616.48
2018-08-12T13:45:24.811Z,95618.72
2018-08-12T13:48:30.119Z,95606.11
2018-08-12T13:51:34.487Z,95601.84
2018-08-12T13:54:38.866Z,95601.27
2018-08-12T13:57:43.392Z,95592.56
2018-08-12T14:00:47.813Z,95587.70
2018-08-12T14:03:52.117Z,95564.14
2018-08-12T14:06:57.435Z,95578.83
2018-08-12T14:10:01.765Z,95557.05
2018-08-12T14:13:06.304Z,95551.93
2018-08-12T14:16:10.763Z,95544.58
2018-08-12T14:19:15.361Z,95545.21
2018-08-12T14:22:19.695Z,95543.52
2018-08-12T14:25:24.057Z,95544.02
2018-08-12T14:28:28.980Z,95528.55
2018-08-12T14:31:33.400Z,95531.16
2018-08-12T14:34:38.078Z,95545.46
2018-08-12T14:37:42.541Z,95532.72
2018-08-12T14:40:46.866Z,95535.42
2018-08-12T14:43:51.285Z,95524.36
2018-08-12T14:46:56.185Z,95518.84
2018-08-12T14:50:00.548Z,95527.55
2018-08-12T14:53:05.174Z,95510.84
2018-08-12T14:56:09.571Z,95501.09
2018-08-12T14:59:14.929Z,95565.41
2018-08-12T15:02:19.377Z,95569.13
2018-08-12T15:05:24.113Z,95565.17
2018-08-12T15:08:28.681Z,95550.58
2018-08-12T15:11:33.170Z,95537.86
2018-08-12T15:14:38.166Z,95532.19
2018-08-12T15:17:43.554Z,95526.51
2018-08-12T15:20:48.441Z,95529.50
2018-08-12T15:23:52.775Z,95529.56
2018-08-12T15:26:57.195Z,95519.01
2018-08-12T15:30:01.756Z,95505.25
2018-08-12T15:33:06.409Z,95486.83
2018-08-12T15:36:12.593Z,95486.55
2018-08-12T15:39:17.101Z,95481.69
2018-08-12T15:42:22.033Z,95464.94
2018-08-12T15:45:26.395Z,95466.81
2018-08-12T15:48:31.352Z,95467.14
2018-08-12T15:51:35.724Z,95459.03
2018-08-12T15:54:41.442Z,95462.67
2018-08-12T15:57:45.861Z,95456.53
2018-08-12T16:00:50.366Z,95449.55
2018-08-12T16:03:55.185Z,95444.09
2018-08-12T16:06:59.501Z,95505.20
2018-08-12T16:10:03.851Z,95497.03
2018-08-12T16:13:08.926Z,95479.73
2018-08-12T16:16:14.705Z,95473.06
2018-08-12T16:19:19.741Z,95456.32
2018-08-12T16:22:24.414Z,95454.20
2018-08-12T16:25:29.469Z,95440.67
2018-08-12T16:28:34.145Z,95439.67
2018-08-12T16:31:39.449Z,95431.14
2018-08-12T16:34:43.799Z,95425.16
2018-08-12T16:37:48.825Z,95418.21
2018-08-12T16:40:53.260Z,95418.75
2018-08-12T16:43:57.881Z,95426.72
2018-08-12T16:47:02.789Z,95416.89
2018-08-12T16:50:08.685Z,95404.95
2018-08-12T16:53:13.173Z,95387.58
2018-08-12T16:56:17.985Z,95381.86
2018-08-12T16:59:22.394Z,95375.67
2018-08-12T17:02:26.963Z,95433.75
2018-08-12T17:05:31.633Z,95490.33
2018-08-12T17:08:38.512Z,95429.67
2018-08-12T17:11:42.899Z,95449.14
2018-08-12T17:14:48.221Z,95380.09
2018-08-12T17:17:53.749Z,95349.03
2018-08-12T17:20:58.148Z,95330.39
2018-08-12T17:24:02.447Z,95314.38
2018-08-12T17:27:07.358Z,95325.84
2018-08-12T17:30:14.698Z,95308.92
2018-08-12T17:33:19.048Z,95302.22
2018-08-12T17:36:23.525Z,95308.38
2018-08-12T17:39:27.976Z,95311.55
2018-08-12T17:42:32.345Z,95295.27
2018-08-12T17:45:37.469Z,95296.50
2018-08-12T17:48:42.112Z,95298.47
2018-08-12T17:51:46.681Z,95292.03
2018-08-12T17:54:51.348Z,95291.60
2018-08-12T17:57:56.167Z,95291.67
2018-08-12T18:01:01.830Z,95285.89
2018-08-12T18:04:06.606Z,95278.11
2018-08-12T18:07:11.257Z,95278.77
2018-08-12T18:10:16.045Z,95305.70
2018-08-12T18:13:20.701Z,95327.33
2018-08-12T18:16:25.037Z,95316.88
2018-08-12T18:19:29.736Z,95343.11
2018-08-12T18:22:34.853Z,95341.06
2018-08-12T18:25:40.387Z,95335.38
2018-08-12T18:28:46.067Z,95335.61
2018-08-12T18:31:51.716Z,95327.37
2018-08-12T18:34:56.273Z,95323.19
2018-08-12T18:38:01.248Z,95322.15
2018-08-12T18:41:05.663Z,95319.58
2018-08-12T18:44:10.801Z,95315.55
2018-08-12T18:47:15.085Z,95305.01
2018-08-12T18:50:19.454Z,95297.95
2018-08-12T18:53:23.865Z,95314.86
2018-08-12T18:56:28.158Z,95300.86
2018-08-12T18:59:32.902Z,95302.12
2018-08-12T19:02:37.224Z,95301.81
2018-08-12T19:05:41.580Z,95303.26
2018-08-12T19:08:46.042Z,95299.48
2018-08-12T19:11:50.757Z,95292.17
2018-08-12T19:14:55.177Z,95287.61
2018-08-12T19:17:59.548Z,95285.52
2018-08-12T19:21:03.946Z,95274.35
2018-08-12T19:24:08.434Z,95273.39
2018-08-12T19:27:13.032Z,95271.27
2018-08-12T19:30:17.561Z,95277.05
2018-08-12T19:33:22.565Z,95270.74
2018-08-12T19:36:27.347Z,95269.22
2018-08-12T19:39:31.859Z,95268.25
2018-08-12T19:42:36.325Z,95273.85
2018-08-12T19:45:40.637Z,95290.06
2018-08-12T19:48:45.193Z,95377.89
2018-08-12T19:51:49.597Z,95316.53
2018-08-12T19:54:54.529Z,95311.48
2018-08-12T19:57:59.001Z,95300.88
2018-08-12T20:01:03.822Z,95307.46
2018-08-12T20:04:08.201Z,95301.11
2018-08-12T20:07:12.606Z,95305.55
2018-08-12T20:10:16.990Z,95296.50
2018-08-12T20:13:22.099Z,95291.48
2018-08-12T20:16:26.705Z,95329.50
2018-08-12T20:19:32.047Z,95301.14
2018-08-12T20:22:37.114Z,95294.75
2018-08-12T20:25:41.572Z,95285.31
2018-08-12T20:28:45.977Z,95277.41
2018-08-12T20:31:50.878Z,95276.84
2018-08-12T20:34:55.519Z,95303.63
2018-08-12T20:38:00.118Z,95273.74
2018-08-12T20:41:04.577Z,95257.94
2018-08-12T20:44:08.981Z,95256.57
2018-08-12T20:47:13.693Z,95258.89
2018-08-12T20:50:18.089Z,95256.95
2018-08-12T20:53:22.594Z,95248.45
2018-08-12T20:56:27.420Z,95244.17
2018-08-12T20:59:31.878Z,95243.76
2018-08-12T21:02:36.157Z,95281.51
2018-08-12T21:05:40.512Z,95246.62
2018-08-12T21:08:45.196Z,95246.40
2018-08-12T21:11:50.039Z,95241.94
2018-08-12T21:14:54.802Z,95245.20
2018-08-12T21:18:01.036Z,95242.31
2018-08-12T21:21:05.648Z,95246.13
2018-08-12T21:24:10.055Z,95249.39
2018-08-12T21:27:14.420Z,95248.79
2018-08-12T21:30:18.794Z,95280.34
2018-08-12T21:33:23.828Z,95264.34
2018-08-12T21:36:28.334Z,95252.20
2018-08-12T21:39:32.930Z,95251.25
2018-08-12T21:42:37.453Z,95247.17
2018-08-12T21:45:41.750Z,95248.89
2018-08-12T21:48:46.594Z,95255.56
2018-08-12T21:51:51.217Z,95241.12
2018-08-12T21:54:56.108Z,95274.61
2018-08-12T21:58:01.051Z,95258.05
2018-08-12T22:01:05.658Z,95251.13
2018-08-12T22:04:10.085Z,95230.72
2018-08-12T22:07:14.422Z,95230.52
2018-08-12T22:10:18.756Z,95230.72
2018-08-12T22:13:23.418Z,95225.91
2018-08-12T22:16:27.909Z,95294.94
2018-08-12T22:19:32.263Z,95242.84
2018-08-12T22:22:36.990Z,95224.56
2018-08-12T22:25:41.315Z,95245.70
2018-08-12T22:28:45.653Z,95233.02
2018-08-12T22:31:49.975Z,95210.90
2018-08-12T22:34:54.938Z,95212.61
2018-08-12T22:37:59.273Z,95212.05
2018-08-12T22:41:03.630Z,95203.80
2018-08-12T22:44:07.917Z,95284.16
2018-08-12T22:47:12.682Z,95231.86
2018-08-12T22:50:17.045Z,95228.94
2018-08-12T22:53:21.327Z,95209.72
2018-08-12T22:56:25.705Z,95207.43
2018-08-12T22:59:30.306Z,95202.62
2018-08-12T23:02:34.680Z,95201.64
2018-08-12T23:05:39.412Z,95200.50
2018-08-12T23:08:43.954Z,95203.97
2018-08-12T23:11:48.339Z,95205.11
2018-08-12T23:14:52.810Z,95200.70
2018-08-12T23:17:57.125Z,95228.39
2018-08-12T23:21:01.673Z,95206.86
2018-08-12T23:24:07.202Z,95196.09
2018-08-12T23:27:11.830Z,95197.23
2018-08-12T23:30:16.410Z,95194.91
2018-08-12T23:33:20.814Z,95194.17
2018-08-12T23:36:25.233Z,95188.98
2018-08-12T23:39:29.695Z,95186.84
2018-08-12T23:42:34.364Z,95180.88
2018-08-12T23:45:38.713Z,95177.38
2018-08-12T23:48:43.228Z,95176.78
2018-08-12T23:51:48.328Z,95163.24
2018-08-12T23:54:53.010Z,95296.77
2018-08-12T23:57:57.345Z,95190.11
